Terminal Aerodrome Forecast
Issued by NWS Charleston, WV

Home | Current Version | Previous Version | Text Only | Print | Product List | Glossary On
Versions: 1 2 3 4 5 6 7 8 9 10 11 12 13 14 15 16 17 18 19 20 21 22 23 24 25
000
FTUS41 KRLX 040553
TAFHTS
TAF
KHTS 040553Z 0406/0506 00000KT 4SM BR FEW100
     FM040800 00000KT 1SM BR SCT001
     FM041300 00000KT 5SM BR SCT035
     FM041400 00000KT P6SM SCT035
     FM041700 00000KT P6SM VCTS BKN040CB
     FM042300 00000KT P6SM SCT040
     FM050500 00000KT 6SM BR SCT040=

USA.gov is the U.S. government's official web portal to all federal, state and local government web resources and services.